createdAt,value
2022-10-19T00:00:26.537Z,6.53
2022-10-19T00:02:55.939Z,6.50
2022-10-19T00:05:24.997Z,6.53
2022-10-19T00:07:56.411Z,7.03
2022-10-19T00:10:28.714Z,6.50
2022-10-19T00:13:02.044Z,6.93
2022-10-19T00:15:31.940Z,8.00
2022-10-19T00:18:01.994Z,8.25
2022-10-19T00:20:33.458Z,6.62
2022-10-19T00:23:02.638Z,6.85
2022-10-19T00:25:35.454Z,6.70
2022-10-19T00:28:05.693Z,7.12
2022-10-19T00:30:39.035Z,7.15
2022-10-19T00:33:10.378Z,6.37
2022-10-19T00:35:43.180Z,6.77
2022-10-19T00:38:14.112Z,6.95
2022-10-19T00:40:43.297Z,7.12
2022-10-19T00:43:19.460Z,7.20
2022-10-19T00:45:50.830Z,6.65
2022-10-19T00:48:27.227Z,7.25
2022-10-19T00:50:57.895Z,7.22
2022-10-19T00:53:29.682Z,8.27
2022-10-19T00:56:02.342Z,8.07
2022-10-19T00:58:31.304Z,7.32
2022-10-19T01:01:02.538Z,7.70
2022-10-19T01:03:31.595Z,7.47
2022-10-19T01:06:02.065Z,7.37
2022-10-19T01:08:31.856Z,7.18
2022-10-19T01:11:07.871Z,6.85
2022-10-19T01:13:47.876Z,7.60
2022-10-19T01:16:42.909Z,6.75
2022-10-19T01:19:26.217Z,7.60
2022-10-19T01:22:07.607Z,7.00
2022-10-19T01:27:44.820Z,6.93
2022-10-19T01:30:42.167Z,6.45
2022-10-19T01:33:52.658Z,6.80
2022-10-19T01:37:02.209Z,6.97
2022-10-19T01:40:06.275Z,6.97
2022-10-19T01:45:49.988Z,7.40
2022-10-19T01:48:31.815Z,7.37
2022-10-19T01:51:06.543Z,7.78
2022-10-19T01:53:49.807Z,7.57
2022-10-19T01:56:23.551Z,7.47
2022-10-19T01:58:53.148Z,7.90
2022-10-19T02:01:28.730Z,7.40
2022-10-19T02:03:58.899Z,7.53
2022-10-19T02:06:29.520Z,7.85
2022-10-19T02:08:59.322Z,7.32
2022-10-19T02:11:29.045Z,8.95
2022-10-19T02:14:06.630Z,8.85
2022-10-19T02:16:41.239Z,8.38
2022-10-19T02:19:10.293Z,8.68
2022-10-19T02:21:38.435Z,8.02
2022-10-19T02:24:06.276Z,8.35
2022-10-19T02:26:34.687Z,8.63
2022-10-19T02:29:03.785Z,8.38
2022-10-19T02:31:31.837Z,8.70
2022-10-19T02:34:00.457Z,9.63
2022-10-19T02:36:30.714Z,8.85
2022-10-19T02:39:00.798Z,9.48
2022-10-19T02:41:35.659Z,9.43
2022-10-19T02:44:17.684Z,9.85
2022-10-19T02:47:01.770Z,9.00
2022-10-19T02:49:30.549Z,9.07
2022-10-19T02:52:01.308Z,9.50
2022-10-19T02:54:30.065Z,9.18
2022-10-19T02:56:58.250Z,9.40
2022-10-19T02:59:26.366Z,9.90
2022-10-19T03:01:54.287Z,9.70
2022-10-19T03:04:22.174Z,11.23
2022-10-19T03:06:50.218Z,9.82
2022-10-19T03:09:18.987Z,11.48
2022-10-19T03:11:47.062Z,10.05
2022-10-19T03:14:15.007Z,11.30
2022-10-19T03:16:44.750Z,11.20
2022-10-19T03:19:13.744Z,11.30
2022-10-19T03:21:42.302Z,10.75
2022-10-19T03:24:11.360Z,11.68
2022-10-19T03:26:39.696Z,11.55
2022-10-19T03:29:07.955Z,12.13
2022-10-19T03:31:36.501Z,12.35
2022-10-19T03:34:05.684Z,12.37
2022-10-19T03:36:36.563Z,11.80
2022-10-19T03:39:12.988Z,13.00
2022-10-19T03:41:40.938Z,12.40
2022-10-19T03:44:10.718Z,11.77
2022-10-19T03:46:39.910Z,12.23
2022-10-19T03:49:15.617Z,12.75
2022-10-19T03:51:43.921Z,12.73
2022-10-19T03:54:15.167Z,12.20
2022-10-19T03:56:44.176Z,11.40
2022-10-19T03:59:14.744Z,11.43
2022-10-19T04:01:46.208Z,11.00
2022-10-19T04:04:18.333Z,11.63
2022-10-19T04:06:48.560Z,10.13
2022-10-19T04:09:18.802Z,10.50
2022-10-19T04:11:47.920Z,10.63
2022-10-19T04:14:31.576Z,10.95
2022-10-19T04:17:03.077Z,9.95
2022-10-19T04:19:32.186Z,11.07
2022-10-19T04:22:00.106Z,11.80
2022-10-19T04:24:28.611Z,10.20
2022-10-19T04:26:57.064Z,11.12
2022-10-19T04:29:29.519Z,11.32
2022-10-19T04:31:59.753Z,10.40
2022-10-19T04:34:29.146Z,11.77
2022-10-19T04:36:59.591Z,11.27
2022-10-19T04:39:28.089Z,11.88
2022-10-19T04:41:56.537Z,12.07
2022-10-19T04:44:25.208Z,11.75
2022-10-19T04:46:54.981Z,11.23
2022-10-19T04:49:24.951Z,10.75
2022-10-19T04:51:53.585Z,11.52
2022-10-19T04:54:24.625Z,12.20
2022-10-19T04:56:54.056Z,11.10
2022-10-19T04:59:24.940Z,11.43
2022-10-19T05:01:53.077Z,12.15
2022-10-19T05:04:20.867Z,12.52
2022-10-19T05:06:49.290Z,10.85
2022-10-19T05:09:17.179Z,11.15
2022-10-19T05:11:45.098Z,11.65
2022-10-19T05:14:13.576Z,11.43
2022-10-19T05:16:41.701Z,11.05
2022-10-19T05:19:13.783Z,11.27
2022-10-19T05:21:42.076Z,11.77
2022-10-19T05:24:14.392Z,11.27
2022-10-19T05:26:42.693Z,11.32
2022-10-19T05:29:13.029Z,11.70
2022-10-19T05:31:43.977Z,10.52
2022-10-19T05:34:12.493Z,11.38
2022-10-19T05:36:41.014Z,10.90
2022-10-19T05:39:14.420Z,11.95
2022-10-19T05:41:46.564Z,10.95
2022-10-19T05:44:20.115Z,11.70
2022-10-19T05:46:49.573Z,11.02
2022-10-19T05:49:20.048Z,12.35
2022-10-19T05:51:49.827Z,12.00
2022-10-19T05:54:18.825Z,11.70
2022-10-19T05:56:47.229Z,12.32
2022-10-19T05:59:20.314Z,11.77
2022-10-19T06:01:49.459Z,11.98
2022-10-19T06:06:46.258Z,12.98
2022-10-19T06:09:14.411Z,11.40
2022-10-19T06:11:43.550Z,11.18
2022-10-19T06:14:15.719Z,12.07
2022-10-19T06:16:46.284Z,10.57
2022-10-19T06:19:14.719Z,10.40
2022-10-19T06:21:45.837Z,10.52
2022-10-19T06:24:14.337Z,10.75
2022-10-19T06:26:42.026Z,11.27
2022-10-19T06:29:10.191Z,11.25
2022-10-19T06:31:38.560Z,10.35
2022-10-19T06:34:07.133Z,11.40
2022-10-19T06:36:35.542Z,10.27
2022-10-19T06:39:04.878Z,9.15
2022-10-19T06:41:32.899Z,9.77
2022-10-19T06:44:02.327Z,8.32
2022-10-19T06:46:30.768Z,9.50
2022-10-19T06:49:01.211Z,9.68
2022-10-19T06:51:30.456Z,9.57
2022-10-19T06:53:58.627Z,9.32
2022-10-19T06:56:27.501Z,8.60
2022-10-19T06:58:55.516Z,9.43
2022-10-19T07:01:24.550Z,9.38
2022-10-19T07:03:53.372Z,9.20
2022-10-19T07:06:22.160Z,9.73
2022-10-19T07:08:50.783Z,9.93
2022-10-19T07:11:20.578Z,9.05
2022-10-19T07:13:48.742Z,9.13
2022-10-19T07:16:21.072Z,10.60
2022-10-19T07:18:53.939Z,8.98
2022-10-19T07:21:23.207Z,8.23
2022-10-19T07:23:51.615Z,9.18
2022-10-19T07:26:28.484Z,7.32
2022-10-19T07:28:57.906Z,12.82
2022-10-19T07:31:27.217Z,8.95
2022-10-19T07:33:56.761Z,7.78
2022-10-19T07:36:25.959Z,8.18
2022-10-19T07:38:54.148Z,8.38
2022-10-19T07:41:24.328Z,8.00
2022-10-19T07:43:56.320Z,8.07
2022-10-19T07:46:34.301Z,8.57
2022-10-19T07:49:05.119Z,7.12
2022-10-19T07:51:33.810Z,7.25
2022-10-19T07:54:06.890Z,7.18
2022-10-19T07:56:35.153Z,7.45
2022-10-19T07:59:05.640Z,6.37
2022-10-19T08:01:38.530Z,5.87
2022-10-19T08:06:55.845Z,4.10
2022-10-19T08:09:54.299Z,4.25
2022-10-19T08:12:15.487Z,5.12
2022-10-19T08:14:44.223Z,3.65
2022-10-19T08:17:29.563Z,3.58
2022-10-19T08:19:58.531Z,5.70
2022-10-19T08:22:28.144Z,4.93
2022-10-19T08:24:56.436Z,14.80
2022-10-19T08:27:29.427Z,5.20
2022-10-19T08:29:57.765Z,4.10
2022-10-19T08:32:28.168Z,4.50
2022-10-19T08:34:56.357Z,8.20
2022-10-19T08:37:43.838Z,4.20
2022-10-19T08:40:19.685Z,4.50
2022-10-19T08:43:06.677Z,8.95
2022-10-19T08:45:35.301Z,3.55
2022-10-19T08:48:07.218Z,3.37
2022-10-19T08:50:40.582Z,4.97
2022-10-19T08:53:24.932Z,3.90
2022-10-19T08:56:49.972Z,2.62
2022-10-19T08:59:32.892Z,3.10
2022-10-19T09:02:42.016Z,17.10
2022-10-19T09:05:24.710Z,3.90
2022-10-19T09:07:54.413Z,3.97
2022-10-19T09:10:26.000Z,3.00
2022-10-19T09:13:00.321Z,2.90
2022-10-19T09:15:42.462Z,2.90
2022-10-19T09:18:30.476Z,2.90
2022-10-19T09:21:00.723Z,3.47
2022-10-19T09:26:15.335Z,4.15
2022-10-19T09:28:49.144Z,3.47
2022-10-19T09:31:35.821Z,3.65
2022-10-19T09:34:27.986Z,2.70
2022-10-19T09:36:58.072Z,2.60
2022-10-19T09:39:29.526Z,2.53
2022-10-19T09:42:02.787Z,5.37
2022-10-19T09:44:31.436Z,2.85
2022-10-19T09:47:14.878Z,3.50
2022-10-19T09:49:49.945Z,2.70
2022-10-19T09:52:28.141Z,2.55
2022-10-19T09:55:13.911Z,2.30
2022-10-19T09:57:43.058Z,2.30
2022-10-19T10:00:26.128Z,2.35
2022-10-19T10:02:55.903Z,2.40
2022-10-19T10:05:38.483Z,2.50
2022-10-19T10:08:16.204Z,14.82
2022-10-19T10:10:47.288Z,2.47
2022-10-19T10:13:21.575Z,1.73
2022-10-19T10:16:03.218Z,7.25
2022-10-19T10:18:32.359Z,2.00
2022-10-19T10:21:11.900Z,1.80
2022-10-19T10:23:42.147Z,1.90
2022-10-19T10:26:20.074Z,1.77
2022-10-19T10:28:50.133Z,1.42
2022-10-19T10:31:24.375Z,1.45
2022-10-19T10:34:11.004Z,1.55
2022-10-19T10:36:51.869Z,2.12
2022-10-19T10:39:28.630Z,14.60
2022-10-19T10:42:00.725Z,2.42
2022-10-19T10:44:31.033Z,1.25
2022-10-19T10:47:01.019Z,1.58
2022-10-19T10:49:35.952Z,1.30
2022-10-19T10:52:10.889Z,2.10
2022-10-19T10:54:39.255Z,1.65
2022-10-19T10:57:18.551Z,1.35
2022-10-19T10:59:58.277Z,1.37
2022-10-19T11:02:46.641Z,1.40
2022-10-19T11:05:17.718Z,1.73
2022-10-19T11:07:48.795Z,6.80
2022-10-19T11:10:22.918Z,1.23
2022-10-19T11:13:22.175Z,1.50
2022-10-19T11:16:13.720Z,1.52
2022-10-19T11:18:43.538Z,5.18
2022-10-19T11:21:25.640Z,1.40
2022-10-19T11:24:23.589Z,1.10
2022-10-19T11:27:19.425Z,1.20
2022-10-19T11:30:08.823Z,1.40
2022-10-19T11:33:26.625Z,1.20
2022-10-19T11:35:59.115Z,1.35
2022-10-19T11:38:42.581Z,1.67
2022-10-19T11:41:28.837Z,1.75
2022-10-19T11:44:19.279Z,1.67
2022-10-19T11:47:06.516Z,1.58
2022-10-19T11:49:38.057Z,1.83
2022-10-19T11:52:29.079Z,2.15
2022-10-19T11:55:17.163Z,1.42
2022-10-19T11:58:05.615Z,1.55
2022-10-19T12:00:47.173Z,1.25
2022-10-19T12:03:18.398Z,1.00
2022-10-19T12:06:17.326Z,1.10
2022-10-19T12:09:17.183Z,1.30
2022-10-19T12:11:54.861Z,1.10
2022-10-19T12:14:27.121Z,1.15
2022-10-19T12:16:58.888Z,1.40
2022-10-19T12:19:30.114Z,1.10
2022-10-19T12:22:02.971Z,1.30
2022-10-19T12:24:32.835Z,1.80
2022-10-19T12:27:01.007Z,1.40
2022-10-19T12:29:34.826Z,1.17
2022-10-19T12:32:04.550Z,1.12
2022-10-19T12:35:00.430Z,1.08
2022-10-19T12:37:37.879Z,1.20
2022-10-19T12:40:21.295Z,1.58
2022-10-19T12:42:54.373Z,1.27
2022-10-19T12:45:25.550Z,1.17
2022-10-19T12:48:09.339Z,1.37
2022-10-19T12:50:49.281Z,2.00
2022-10-19T12:53:36.082Z,1.30
2022-10-19T12:56:10.250Z,1.40
2022-10-19T12:58:46.674Z,3.30
2022-10-19T13:01:28.272Z,1.40
2022-10-19T13:04:13.512Z,1.80
2022-10-19T13:06:44.224Z,1.15
2022-10-19T13:09:44.003Z,1.80
2022-10-19T13:12:17.818Z,2.10
2022-10-19T13:14:55.833Z,1.62
2022-10-19T13:17:46.680Z,1.30
2022-10-19T13:20:14.766Z,1.50
2022-10-19T13:22:49.131Z,1.70
2022-10-19T13:25:19.775Z,1.90
2022-10-19T13:27:48.851Z,1.58
2022-10-19T13:30:38.594Z,1.48
2022-10-19T13:33:31.587Z,1.83
2022-10-19T13:35:59.388Z,2.62
2022-10-19T13:38:42.757Z,3.17
2022-10-19T13:41:14.680Z,9.18
2022-10-19T13:44:22.040Z,2.25
2022-10-19T13:47:29.753Z,3.75
2022-10-19T13:50:31.888Z,2.10
2022-10-19T13:53:06.264Z,2.20
2022-10-19T13:55:50.405Z,1.70
2022-10-19T13:58:30.426Z,2.30
2022-10-19T14:01:20.312Z,2.65
2022-10-19T14:03:52.823Z,2.60
2022-10-19T14:06:48.233Z,6.87
2022-10-19T14:09:57.635Z,2.50
2022-10-19T14:12:28.349Z,2.90
2022-10-19T14:14:58.498Z,3.15
2022-10-19T14:17:34.103Z,2.40
2022-10-19T14:20:04.151Z,2.30
2022-10-19T14:22:38.503Z,2.35
2022-10-19T14:25:17.843Z,2.70
2022-10-19T14:27:46.822Z,2.22
2022-10-19T14:30:26.550Z,2.60
2022-10-19T14:32:58.147Z,2.70
2022-10-19T14:35:33.816Z,2.35
2022-10-19T14:38:02.008Z,2.42
2022-10-19T14:40:32.915Z,2.70
2022-10-19T14:43:01.426Z,3.10
2022-10-19T14:45:31.315Z,2.92
2022-10-19T14:48:05.221Z,3.17
2022-10-19T14:50:46.679Z,2.22
2022-10-19T14:53:34.328Z,2.35
2022-10-19T14:56:09.135Z,3.17
2022-10-19T14:59:06.968Z,2.55
2022-10-19T15:01:35.417Z,2.10
2022-10-19T15:04:04.408Z,2.35
2022-10-19T15:06:42.461Z,2.58
2022-10-19T15:09:36.766Z,2.30
2022-10-19T15:12:15.238Z,2.55
2022-10-19T15:14:43.921Z,2.55
2022-10-19T15:17:38.781Z,2.78
2022-10-19T15:20:23.873Z,2.60
2022-10-19T15:22:51.546Z,2.62
2022-10-19T15:25:37.273Z,3.15
2022-10-19T15:28:38.995Z,3.10
2022-10-19T15:31:21.719Z,3.55
2022-10-19T15:34:01.623Z,3.97
2022-10-19T15:36:30.802Z,3.90
2022-10-19T15:39:06.325Z,3.05
2022-10-19T15:41:46.186Z,3.20
2022-10-19T15:44:34.846Z,3.22
2022-10-19T15:47:33.321Z,2.85
2022-10-19T15:50:02.047Z,2.80
2022-10-19T15:52:33.439Z,3.30
2022-10-19T15:55:03.435Z,3.37
2022-10-19T15:57:37.510Z,3.22
2022-10-19T16:00:15.837Z,3.10
2022-10-19T16:02:43.967Z,3.30
2022-10-19T16:05:11.794Z,2.72
2022-10-19T16:07:41.451Z,3.12
2022-10-19T16:10:16.674Z,3.35
2022-10-19T16:12:44.911Z,2.72
2022-10-19T16:15:17.466Z,3.03
2022-10-19T16:17:46.848Z,2.97
2022-10-19T16:20:16.572Z,2.53
2022-10-19T16:22:46.186Z,3.15
2022-10-19T16:25:14.316Z,2.80
2022-10-19T16:27:42.216Z,2.83
2022-10-19T16:30:10.606Z,2.83
2022-10-19T16:35:10.110Z,2.55
2022-10-19T16:37:38.357Z,2.40
2022-10-19T16:40:06.961Z,3.03
2022-10-19T16:42:36.048Z,2.65
2022-10-19T16:45:05.243Z,2.37
2022-10-19T16:47:33.241Z,2.62
2022-10-19T16:50:02.512Z,2.50
2022-10-19T16:52:32.261Z,2.50
2022-10-19T16:55:01.258Z,2.42
2022-10-19T16:57:29.862Z,2.50
2022-10-19T16:59:59.719Z,2.78
2022-10-19T17:02:27.666Z,2.45
2022-10-19T17:04:55.749Z,2.60
2022-10-19T17:07:24.153Z,2.47
2022-10-19T17:09:54.746Z,2.50
2022-10-19T17:12:23.498Z,2.58
2022-10-19T17:14:51.787Z,2.67
2022-10-19T17:17:19.924Z,2.62
2022-10-19T17:19:48.876Z,2.80
2022-10-19T17:22:17.114Z,2.67
2022-10-19T17:24:50.744Z,3.10
2022-10-19T17:27:19.164Z,2.83
2022-10-19T17:29:47.443Z,3.25
2022-10-19T17:32:15.898Z,2.60
2022-10-19T17:34:50.702Z,3.08
2022-10-19T17:37:20.477Z,2.85
2022-10-19T17:39:51.789Z,2.80
2022-10-19T17:42:21.714Z,3.10
2022-10-19T17:44:56.998Z,3.60
2022-10-19T17:47:25.412Z,3.53
2022-10-19T17:49:56.899Z,3.15
2022-10-19T17:52:24.833Z,2.70
2022-10-19T17:55:13.281Z,2.60
2022-10-19T17:57:43.474Z,2.42
2022-10-19T18:00:12.350Z,2.58
2022-10-19T18:02:41.105Z,2.70
2022-10-19T18:05:09.982Z,2.47
2022-10-19T18:07:38.454Z,2.50
2022-10-19T18:10:08.096Z,2.17
2022-10-19T18:12:36.446Z,2.05
2022-10-19T18:15:05.249Z,2.15
2022-10-19T18:17:33.526Z,2.28
2022-10-19T18:20:02.250Z,2.58
2022-10-19T18:22:30.518Z,2.22
2022-10-19T18:24:58.582Z,2.22
2022-10-19T18:27:29.896Z,2.25
2022-10-19T18:29:57.833Z,2.50
2022-10-19T18:32:26.648Z,2.42
2022-10-19T18:34:55.912Z,2.90
2022-10-19T18:37:26.741Z,2.28
2022-10-19T18:39:55.170Z,2.40
2022-10-19T18:42:23.343Z,2.37
2022-10-19T18:44:51.617Z,2.62
2022-10-19T18:47:20.505Z,2.60
2022-10-19T18:49:48.657Z,2.40
2022-10-19T18:52:16.292Z,2.10
2022-10-19T18:54:44.964Z,2.33
2022-10-19T18:57:13.217Z,2.40
2022-10-19T18:59:41.886Z,2.65
2022-10-19T19:02:28.220Z,2.80
2022-10-19T19:05:02.138Z,2.65
2022-10-19T19:07:31.983Z,2.47
2022-10-19T19:10:00.170Z,2.50
2022-10-19T19:12:28.191Z,2.30
2022-10-19T19:14:56.211Z,2.37
2022-10-19T19:17:25.103Z,2.55
2022-10-19T19:19:53.277Z,2.50
2022-10-19T19:22:21.808Z,2.97
2022-10-19T19:24:50.442Z,3.08
2022-10-19T19:27:19.149Z,3.05
2022-10-19T19:29:48.744Z,2.92
2022-10-19T19:32:18.180Z,3.13
2022-10-19T19:34:46.663Z,3.55
2022-10-19T19:37:16.832Z,2.67
2022-10-19T19:39:45.255Z,2.53
2022-10-19T19:42:13.660Z,2.85
2022-10-19T19:44:42.525Z,3.05
2022-10-19T19:47:11.350Z,2.92
2022-10-19T19:49:40.766Z,2.87
2022-10-19T19:54:39.953Z,3.53
2022-10-19T19:57:08.578Z,3.53
2022-10-19T19:59:36.525Z,4.20
2022-10-19T20:02:05.051Z,4.10
2022-10-19T20:04:34.352Z,3.55
2022-10-19T20:07:02.782Z,3.60
2022-10-19T20:09:31.242Z,3.67
2022-10-19T20:11:59.716Z,3.37
2022-10-19T20:14:29.067Z,3.70
2022-10-19T20:16:59.190Z,3.75
2022-10-19T20:19:33.543Z,3.65
2022-10-19T20:22:08.149Z,3.00
2022-10-19T20:24:38.176Z,2.97
2022-10-19T20:27:07.241Z,2.40
2022-10-19T20:29:46.162Z,2.42
2022-10-19T20:32:14.404Z,2.20
2022-10-19T20:34:42.600Z,3.10
2022-10-19T20:37:12.031Z,2.90
2022-10-19T20:39:43.697Z,2.50
2022-10-19T20:42:11.949Z,2.58
2022-10-19T20:44:40.044Z,2.42
2022-10-19T20:47:10.077Z,2.40
2022-10-19T20:49:38.368Z,2.33
2022-10-19T20:52:06.306Z,2.30
2022-10-19T20:54:34.263Z,2.83
2022-10-19T20:57:02.380Z,2.65
2022-10-19T20:59:31.559Z,3.28
2022-10-19T21:02:00.121Z,3.28
2022-10-19T21:04:28.296Z,3.50
2022-10-19T21:06:56.211Z,3.37
2022-10-19T21:09:26.128Z,3.42
2022-10-19T21:11:57.156Z,3.53
2022-10-19T21:14:28.476Z,3.40
2022-10-19T21:17:00.587Z,3.50
2022-10-19T21:19:30.964Z,2.70
2022-10-19T21:22:02.294Z,3.00
2022-10-19T21:24:35.583Z,2.70
2022-10-19T21:27:06.070Z,2.67
2022-10-19T21:29:33.742Z,2.30
2022-10-19T21:32:02.352Z,2.90
2022-10-19T21:34:31.579Z,2.67
2022-10-19T21:36:59.926Z,2.17
2022-10-19T21:39:27.392Z,2.60
2022-10-19T21:41:55.820Z,2.45
2022-10-19T21:44:24.040Z,2.60
2022-10-19T21:46:52.264Z,2.40
2022-10-19T21:49:20.280Z,2.70
2022-10-19T21:51:50.420Z,2.45
2022-10-19T21:54:21.493Z,2.58
2022-10-19T21:56:49.632Z,3.28
2022-10-19T21:59:18.314Z,3.08
2022-10-19T22:01:47.529Z,2.72
2022-10-19T22:04:18.516Z,2.45
2022-10-19T22:06:47.039Z,2.58
2022-10-19T22:09:18.675Z,3.10
2022-10-19T22:11:49.730Z,2.80
2022-10-19T22:14:22.642Z,3.20
2022-10-19T22:16:51.651Z,2.92
2022-10-19T22:19:21.275Z,2.42
2022-10-19T22:21:50.537Z,2.65
2022-10-19T22:24:20.485Z,2.42
2022-10-19T22:26:51.528Z,3.08
2022-10-19T22:29:19.945Z,2.90
2022-10-19T22:31:51.745Z,2.78
2022-10-19T22:34:21.742Z,2.55
2022-10-19T22:36:51.891Z,2.50
2022-10-19T22:39:24.819Z,2.42
2022-10-19T22:41:57.091Z,2.65
2022-10-19T22:44:27.997Z,2.90
2022-10-19T22:46:59.775Z,3.00
2022-10-19T22:49:29.103Z,3.20
2022-10-19T22:51:58.413Z,2.90
2022-10-19T22:54:28.098Z,2.87
2022-10-19T22:57:03.651Z,2.50
2022-10-19T22:59:41.564Z,2.40
2022-10-19T23:02:12.831Z,2.20
2022-10-19T23:04:44.742Z,2.30
2022-10-19T23:07:16.904Z,2.28
2022-10-19T23:09:47.279Z,2.50
2022-10-19T23:12:22.638Z,3.00
2022-10-19T23:14:51.883Z,2.40
2022-10-19T23:17:25.080Z,2.35
2022-10-19T23:19:54.985Z,2.75
2022-10-19T23:22:27.036Z,2.60
2022-10-19T23:24:58.208Z,2.37
2022-10-19T23:27:28.368Z,2.23
2022-10-19T23:30:01.679Z,2.65
2022-10-19T23:32:41.461Z,2.50
2022-10-19T23:35:11.032Z,2.65
2022-10-19T23:37:47.024Z,2.70
2022-10-19T23:40:18.132Z,2.90
2022-10-19T23:42:49.359Z,3.03
2022-10-19T23:45:19.829Z,2.60
2022-10-19T23:47:51.316Z,2.78
2022-10-19T23:50:20.149Z,2.67
2022-10-19T23:52:51.267Z,2.50
2022-10-19T23:55:21.136Z,2.85
2022-10-19T23:57:52.847Z,2.42
